sensor_id;sensor_type;location;lat;lon;timestamp;pressure;altitude;pressure_sealevel;temperature;humidity
77288;BME280;66345;42.694;23.346;2023-12-04T00:00:40;96078.09;;;0.18;66.22
77288;BME280;66345;42.694;23.346;2023-12-04T00:03:06;96100.56;;;0.08;66.11
77288;BME280;66345;42.694;23.346;2023-12-04T00:05:31;96099.91;;;0.17;66.41
77288;BME280;66345;42.694;23.346;2023-12-04T00:07:57;96078.13;;;0.30;66.58
77288;BME280;66345;42.694;23.346;2023-12-04T00:10:22;96090.69;;;0.48;66.02
77288;BME280;66345;42.694;23.346;2023-12-04T00:12:48;96081.28;;;0.22;66.67
77288;BME280;66345;42.694;23.346;2023-12-04T00:15:13;96092.00;;;0.06;67.15
77288;BME280;66345;42.694;23.346;2023-12-04T00:17:39;96112.25;;;0.15;65.83
77288;BME280;66345;42.694;23.346;2023-12-04T00:20:08;96110.00;;;0.22;65.52
77288;BME280;66345;42.694;23.346;2023-12-04T00:22:35;96112.25;;;0.15;65.87
77288;BME280;66345;42.694;23.346;2023-12-04T00:25:05;96109.09;;;0.23;66.24
77288;BME280;66345;42.694;23.346;2023-12-04T00:27:31;96117.41;;;0.28;66.08
77288;BME280;66345;42.694;23.346;2023-12-04T00:29:56;96122.38;;;0.07;65.50
77288;BME280;66345;42.694;23.346;2023-12-04T00:32:22;96126.88;;;-0.08;66.30
77288;BME280;66345;42.694;23.346;2023-12-04T00:34:47;96120.81;;;0.05;65.87
77288;BME280;66345;42.694;23.346;2023-12-04T00:37:13;96137.03;;;0.21;65.63
77288;BME280;66345;42.694;23.346;2023-12-04T00:39:38;96128.09;;;0.12;64.66
77288;BME280;66345;42.694;23.346;2023-12-04T00:42:04;96128.94;;;0.13;65.05
77288;BME280;66345;42.694;23.346;2023-12-04T00:44:29;96138.16;;;0.30;65.20
77288;BME280;66345;42.694;23.346;2023-12-04T00:46:55;96147.81;;;0.16;65.32
77288;BME280;66345;42.694;23.346;2023-12-04T00:49:20;96142.91;;;0.12;65.30
77288;BME280;66345;42.694;23.346;2023-12-04T00:51:46;96143.03;;;0.10;66.46
77288;BME280;66345;42.694;23.346;2023-12-04T00:54:11;96152.16;;;0.28;66.10
77288;BME280;66345;42.694;23.346;2023-12-04T00:56:40;96147.72;;;0.18;66.32
77288;BME280;66345;42.694;23.346;2023-12-04T00:59:08;96154.31;;;-0.02;66.45
77288;BME280;66345;42.694;23.346;2023-12-04T01:01:35;96157.97;;;0.08;66.89
77288;BME280;66345;42.694;23.346;2023-12-04T01:04:01;96154.84;;;0.03;66.38
77288;BME280;66345;42.694;23.346;2023-12-04T01:06:27;96153.78;;;0.06;66.28
77288;BME280;66345;42.694;23.346;2023-12-04T01:08:54;96162.97;;;0.11;66.77
77288;BME280;66345;42.694;23.346;2023-12-04T01:11:19;96147.28;;;0.24;65.64
77288;BME280;66345;42.694;23.346;2023-12-04T01:13:45;96152.44;;;0.37;65.90
77288;BME280;66345;42.694;23.346;2023-12-04T01:16:11;96137.44;;;0.27;65.82
77288;BME280;66345;42.694;23.346;2023-12-04T01:18:37;96150.22;;;0.19;66.08
77288;BME280;66345;42.694;23.346;2023-12-04T01:21:03;96152.09;;;0.17;66.75
77288;BME280;66345;42.694;23.346;2023-12-04T01:23:28;96170.47;;;0.16;66.15
77288;BME280;66345;42.694;23.346;2023-12-04T01:25:54;96160.91;;;0.04;67.39
77288;BME280;66345;42.694;23.346;2023-12-04T01:28:19;96163.38;;;0.05;67.20
77288;BME280;66345;42.694;23.346;2023-12-04T01:30:45;96165.50;;;0.00;66.91
77288;BME280;66345;42.694;23.346;2023-12-04T01:33:10;96163.81;;;-0.01;66.95
77288;BME280;66345;42.694;23.346;2023-12-04T01:35:36;96150.88;;;0.10;66.88
77288;BME280;66345;42.694;23.346;2023-12-04T01:38:01;96163.50;;;0.04;66.00
77288;BME280;66345;42.694;23.346;2023-12-04T01:40:27;96159.22;;;0.15;65.73
77288;BME280;66345;42.694;23.346;2023-12-04T01:42:52;96161.88;;;0.26;65.48
77288;BME280;66345;42.694;23.346;2023-12-04T01:45:18;96167.88;;;0.16;65.92
77288;BME280;66345;42.694;23.346;2023-12-04T01:47:44;96162.91;;;0.00;65.93
77288;BME280;66345;42.694;23.346;2023-12-04T01:50:11;96171.56;;;-0.12;67.13
77288;BME280;66345;42.694;23.346;2023-12-04T01:52:37;96164.25;;;-0.07;66.93
77288;BME280;66345;42.694;23.346;2023-12-04T01:55:04;96171.16;;;-0.19;66.41
77288;BME280;66345;42.694;23.346;2023-12-04T01:57:31;96170.91;;;-0.03;66.74
77288;BME280;66345;42.694;23.346;2023-12-04T01:59:56;96170.28;;;0.06;66.50
77288;BME280;66345;42.694;23.346;2023-12-04T02:02:22;96168.13;;;-0.13;66.79
77288;BME280;66345;42.694;23.346;2023-12-04T02:04:48;96167.72;;;-0.19;67.20
77288;BME280;66345;42.694;23.346;2023-12-04T02:07:13;96163.09;;;-0.16;66.83
77288;BME280;66345;42.694;23.346;2023-12-04T02:09:39;96163.63;;;-0.23;66.74
77288;BME280;66345;42.694;23.346;2023-12-04T02:12:05;96176.91;;;-0.26;67.18
77288;BME280;66345;42.694;23.346;2023-12-04T02:14:31;96170.94;;;-0.16;66.66
77288;BME280;66345;42.694;23.346;2023-12-04T02:16:57;96182.59;;;-0.09;65.58
77288;BME280;66345;42.694;23.346;2023-12-04T02:19:23;96190.47;;;-0.21;66.37
77288;BME280;66345;42.694;23.346;2023-12-04T02:21:49;96191.50;;;-0.11;66.59
77288;BME280;66345;42.694;23.346;2023-12-04T02:24:15;96188.88;;;-0.11;66.58
77288;BME280;66345;42.694;23.346;2023-12-04T02:26:47;96197.00;;;-0.16;66.39
77288;BME280;66345;42.694;23.346;2023-12-04T02:29:15;96202.13;;;-0.27;65.37
77288;BME280;66345;42.694;23.346;2023-12-04T02:31:45;96198.19;;;-0.20;65.91
77288;BME280;66345;42.694;23.346;2023-12-04T02:34:12;96193.06;;;-0.34;66.12
77288;BME280;66345;42.694;23.346;2023-12-04T02:36:42;96191.28;;;-0.34;65.63
77288;BME280;66345;42.694;23.346;2023-12-04T02:39:08;96194.53;;;-0.43;66.31
77288;BME280;66345;42.694;23.346;2023-12-04T02:41:34;96200.38;;;-0.52;66.53
77288;BME280;66345;42.694;23.346;2023-12-04T02:44:00;96205.06;;;-0.32;66.51
77288;BME280;66345;42.694;23.346;2023-12-04T02:46:25;96204.97;;;-0.43;65.68
77288;BME280;66345;42.694;23.346;2023-12-04T02:48:50;96205.38;;;-0.49;66.64
77288;BME280;66345;42.694;23.346;2023-12-04T02:51:16;96205.16;;;-0.59;66.85
77288;BME280;66345;42.694;23.346;2023-12-04T02:53:41;96190.16;;;-0.68;66.54
77288;BME280;66345;42.694;23.346;2023-12-04T02:56:07;96201.72;;;-0.59;67.15
77288;BME280;66345;42.694;23.346;2023-12-04T02:58:33;96205.03;;;-0.70;67.83
77288;BME280;66345;42.694;23.346;2023-12-04T03:00:59;96207.94;;;-0.87;66.94
77288;BME280;66345;42.694;23.346;2023-12-04T03:03:25;96198.44;;;-0.88;67.94
77288;BME280;66345;42.694;23.346;2023-12-04T03:05:50;96199.72;;;-0.81;67.84
77288;BME280;66345;42.694;23.346;2023-12-04T03:08:16;96195.44;;;-0.82;68.21
77288;BME280;66345;42.694;23.346;2023-12-04T03:10:41;96203.97;;;-0.80;67.97
77288;BME280;66345;42.694;23.346;2023-12-04T03:13:07;96199.34;;;-1.02;67.50
77288;BME280;66345;42.694;23.346;2023-12-04T03:15:32;96207.78;;;-0.98;67.41
77288;BME280;66345;42.694;23.346;2023-12-04T03:17:59;96209.00;;;-1.17;67.73
77288;BME280;66345;42.694;23.346;2023-12-04T03:20:26;96206.13;;;-0.99;68.30
77288;BME280;66345;42.694;23.346;2023-12-04T03:22:51;96209.97;;;-1.05;67.99
77288;BME280;66345;42.694;23.346;2023-12-04T03:25:17;96211.31;;;-0.99;68.07
77288;BME280;66345;42.694;23.346;2023-12-04T03:27:42;96217.19;;;-0.96;67.60
77288;BME280;66345;42.694;23.346;2023-12-04T03:30:08;96228.38;;;-1.08;67.43
77288;BME280;66345;42.694;23.346;2023-12-04T03:32:33;96223.00;;;-1.05;68.00
77288;BME280;66345;42.694;23.346;2023-12-04T03:34:59;96220.69;;;-1.09;68.28
77288;BME280;66345;42.694;23.346;2023-12-04T03:37:24;96211.50;;;-1.15;67.34
77288;BME280;66345;42.694;23.346;2023-12-04T03:39:50;96223.50;;;-1.13;67.24
77288;BME280;66345;42.694;23.346;2023-12-04T03:42:16;96224.84;;;-1.07;68.33
77288;BME280;66345;42.694;23.346;2023-12-04T03:44:41;96231.94;;;-1.09;67.61
77288;BME280;66345;42.694;23.346;2023-12-04T03:47:07;96241.31;;;-1.06;66.48
77288;BME280;66345;42.694;23.346;2023-12-04T03:49:32;96239.63;;;-1.07;66.98
77288;BME280;66345;42.694;23.346;2023-12-04T03:51:58;96238.00;;;-1.35;67.34
77288;BME280;66345;42.694;23.346;2023-12-04T03:54:23;96236.34;;;-1.24;67.59
77288;BME280;66345;42.694;23.346;2023-12-04T03:56:49;96238.19;;;-1.12;67.54
77288;BME280;66345;42.694;23.346;2023-12-04T03:59:14;96236.94;;;-1.06;66.45
77288;BME280;66345;42.694;23.346;2023-12-04T04:01:39;96230.59;;;-1.02;66.39
77288;BME280;66345;42.694;23.346;2023-12-04T04:04:05;96234.47;;;-0.95;66.24
77288;BME280;66345;42.694;23.346;2023-12-04T04:06:30;96233.81;;;-1.11;66.33
77288;BME280;66345;42.694;23.346;2023-12-04T04:08:56;96232.44;;;-1.17;66.52
77288;BME280;66345;42.694;23.346;2023-12-04T04:11:21;96227.16;;;-1.29;66.79
77288;BME280;66345;42.694;23.346;2023-12-04T04:13:47;96246.09;;;-1.13;65.87
77288;BME280;66345;42.694;23.346;2023-12-04T04:16:14;96228.22;;;-1.05;65.95
77288;BME280;66345;42.694;23.346;2023-12-04T04:18:41;96240.03;;;-1.14;66.08
77288;BME280;66345;42.694;23.346;2023-12-04T04:21:08;96240.06;;;-1.01;65.81
77288;BME280;66345;42.694;23.346;2023-12-04T04:23:33;96239.63;;;-1.07;65.11
77288;BME280;66345;42.694;23.346;2023-12-04T04:25:59;96248.63;;;-0.99;65.74
77288;BME280;66345;42.694;23.346;2023-12-04T04:28:24;96248.63;;;-0.99;66.59
77288;BME280;66345;42.694;23.346;2023-12-04T04:30:50;96255.53;;;-0.98;65.22
77288;BME280;66345;42.694;23.346;2023-12-04T04:33:15;96249.50;;;-0.86;65.91
77288;BME280;66345;42.694;23.346;2023-12-04T04:35:42;96258.47;;;-0.90;65.68
77288;BME280;66345;42.694;23.346;2023-12-04T04:38:08;96260.13;;;-0.89;65.03
77288;BME280;66345;42.694;23.346;2023-12-04T04:40:33;96258.47;;;-0.90;64.88
77288;BME280;66345;42.694;23.346;2023-12-04T04:42:59;96259.91;;;-0.86;64.19
77288;BME280;66345;42.694;23.346;2023-12-04T04:45:24;96266.22;;;-0.63;64.28
77288;BME280;66345;42.694;23.346;2023-12-04T04:47:50;96267.06;;;-0.75;64.21
77288;BME280;66345;42.694;23.346;2023-12-04T04:50:15;96270.50;;;-0.74;64.53
77288;BME280;66345;42.694;23.346;2023-12-04T04:52:41;96273.50;;;-0.80;63.50
77288;BME280;66345;42.694;23.346;2023-12-04T04:55:07;96278.25;;;-0.87;63.44
77288;BME280;66345;42.694;23.346;2023-12-04T04:57:32;96276.72;;;-0.77;64.18
77288;BME280;66345;42.694;23.346;2023-12-04T04:59:58;96278.53;;;-0.92;64.26
77288;BME280;66345;42.694;23.346;2023-12-04T05:02:23;96281.97;;;-0.91;63.93
77288;BME280;66345;42.694;23.346;2023-12-04T05:04:49;96281.34;;;-0.95;64.74
77288;BME280;66345;42.694;23.346;2023-12-04T05:07:14;96279.16;;;-1.01;64.75
77288;BME280;66345;42.694;23.346;2023-12-04T05:09:40;96276.09;;;-1.07;64.53
77288;BME280;66345;42.694;23.346;2023-12-04T05:12:05;96284.56;;;-1.04;64.49
77288;BME280;66345;42.694;23.346;2023-12-04T05:14:31;96283.91;;;-0.80;64.95
77288;BME280;66345;42.694;23.346;2023-12-04T05:16:56;96303.59;;;-0.76;64.40
77288;BME280;66345;42.694;23.346;2023-12-04T05:19:22;96296.03;;;-0.67;63.59
77288;BME280;66345;42.694;23.346;2023-12-04T05:21:47;96295.44;;;-0.85;64.26
77288;BME280;66345;42.694;23.346;2023-12-04T05:24:13;96300.97;;;-0.89;63.97
77288;BME280;66345;42.694;23.346;2023-12-04T05:26:38;96285.63;;;-0.94;64.39
77288;BME280;66345;42.694;23.346;2023-12-04T05:29:04;96292.38;;;-1.04;64.50
77288;BME280;66345;42.694;23.346;2023-12-04T05:31:30;96302.97;;;-1.07;63.96
77288;BME280;66345;42.694;23.346;2023-12-04T05:33:55;96293.66;;;-0.97;64.17
77288;BME280;66345;42.694;23.346;2023-12-04T05:36:21;96301.59;;;-0.86;64.59
77288;BME280;66345;42.694;23.346;2023-12-04T05:38:46;96294.66;;;-0.99;64.23
77288;BME280;66345;42.694;23.346;2023-12-04T05:41:12;96302.78;;;-1.04;64.53
77288;BME280;66345;42.694;23.346;2023-12-04T05:43:37;96306.81;;;-1.13;65.04
77288;BME280;66345;42.694;23.346;2023-12-04T05:46:03;96303.41;;;-1.00;64.62
77288;BME280;66345;42.694;23.346;2023-12-04T05:48:28;96304.31;;;-0.87;63.29
77288;BME280;66345;42.694;23.346;2023-12-04T05:50:54;96308.97;;;-0.65;63.60
77288;BME280;66345;42.694;23.346;2023-12-04T05:53:19;96306.38;;;-0.92;62.84
77288;BME280;66345;42.694;23.346;2023-12-04T05:55:45;96308.09;;;-0.78;63.89
77288;BME280;66345;42.694;23.346;2023-12-04T05:58:11;96314.78;;;-0.74;63.66
77288;BME280;66345;42.694;23.346;2023-12-04T06:00:37;96313.44;;;-0.67;63.48
77288;BME280;66345;42.694;23.346;2023-12-04T06:03:02;96310.59;;;-0.77;63.05
77288;BME280;66345;42.694;23.346;2023-12-04T06:05:28;96312.22;;;-0.89;63.03
77288;BME280;66345;42.694;23.346;2023-12-04T06:07:53;96323.81;;;-0.80;63.95
77288;BME280;66345;42.694;23.346;2023-12-04T06:10:19;96321.66;;;-0.73;63.53
77288;BME280;66345;42.694;23.346;2023-12-04T06:12:44;96322.78;;;-0.77;63.53
77288;BME280;66345;42.694;23.346;2023-12-04T06:15:10;96324.44;;;-0.76;63.56
77288;BME280;66345;42.694;23.346;2023-12-04T06:17:35;96325.88;;;-0.85;63.48
77288;BME280;66345;42.694;23.346;2023-12-04T06:20:01;96320.28;;;-0.79;63.18
77288;BME280;66345;42.694;23.346;2023-12-04T06:22:27;96327.00;;;-0.62;63.89
77288;BME280;66345;42.694;23.346;2023-12-04T06:24:53;96325.22;;;-0.62;63.39
77288;BME280;66345;42.694;23.346;2023-12-04T06:27:19;96318.34;;;-0.63;62.95
77288;BME280;66345;42.694;23.346;2023-12-04T06:29:46;96332.66;;;-0.56;63.33
77288;BME280;66345;42.694;23.346;2023-12-04T06:32:12;96337.88;;;-0.56;63.11
77288;BME280;66345;42.694;23.346;2023-12-04T06:34:38;96327.09;;;-0.64;63.23
77288;BME280;66345;42.694;23.346;2023-12-04T06:37:10;96329.78;;;-0.38;62.69
77288;BME280;66345;42.694;23.346;2023-12-04T06:39:37;96326.75;;;-0.32;62.78
77288;BME280;66345;42.694;23.346;2023-12-04T06:42:06;96346.13;;;-0.49;63.08
77288;BME280;66345;42.694;23.346;2023-12-04T06:44:33;96352.16;;;-0.48;63.02
77288;BME280;66345;42.694;23.346;2023-12-04T06:47:00;96361.81;;;-0.63;62.11
77288;BME280;66345;42.694;23.346;2023-12-04T06:49:31;96362.16;;;-0.55;63.10
77288;BME280;66345;42.694;23.346;2023-12-04T06:52:00;96366.97;;;-0.49;62.73
77288;BME280;66345;42.694;23.346;2023-12-04T06:54:26;96361.22;;;-0.54;62.51
77288;BME280;66345;42.694;23.346;2023-12-04T06:56:52;96368.25;;;-0.42;63.13
77288;BME280;66345;42.694;23.346;2023-12-04T06:59:21;96368.81;;;-0.37;61.63
77288;BME280;66345;42.694;23.346;2023-12-04T07:01:46;96355.78;;;-0.24;60.44
77288;BME280;66345;42.694;23.346;2023-12-04T07:04:12;96369.53;;;-0.35;60.17
77288;BME280;66345;42.694;23.346;2023-12-04T07:06:39;96369.25;;;-0.57;60.95
77288;BME280;66345;42.694;23.346;2023-12-04T07:09:05;96362.16;;;-0.28;61.03
77288;BME280;66345;42.694;23.346;2023-12-04T07:11:32;96376.69;;;-0.11;61.80
77288;BME280;66345;42.694;23.346;2023-12-04T07:13:58;96376.75;;;-0.25;61.67
77288;BME280;66345;42.694;23.346;2023-12-04T07:16:24;96369.38;;;-0.46;61.73
77288;BME280;66345;42.694;23.346;2023-12-04T07:18:50;96362.69;;;-0.10;60.97
77288;BME280;66345;42.694;23.346;2023-12-04T07:21:15;96359.69;;;-0.04;61.01
77288;BME280;66345;42.694;23.346;2023-12-04T07:23:41;96357.47;;;-0.10;60.57
77288;BME280;66345;42.694;23.346;2023-12-04T07:26:07;96358.03;;;0.20;60.08
77288;BME280;66345;42.694;23.346;2023-12-04T07:28:33;96361.78;;;0.29;60.61
77288;BME280;66345;42.694;23.346;2023-12-04T07:30:59;96374.00;;;0.16;59.75
77288;BME280;66345;42.694;23.346;2023-12-04T07:33:26;96372.34;;;0.27;59.77
77288;BME280;66345;42.694;23.346;2023-12-04T07:35:52;96371.50;;;0.40;58.07
77288;BME280;66345;42.694;23.346;2023-12-04T07:38:17;96375.16;;;0.24;59.62
77288;BME280;66345;42.694;23.346;2023-12-04T07:40:44;96371.13;;;-0.19;59.64
77288;BME280;66345;42.694;23.346;2023-12-04T07:43:10;96377.09;;;-0.05;60.25
77288;BME280;66345;42.694;23.346;2023-12-04T07:45:36;96367.50;;;-0.04;59.14
77288;BME280;66345;42.694;23.346;2023-12-04T07:48:03;96374.31;;;0.37;59.11
77288;BME280;66345;42.694;23.346;2023-12-04T07:50:29;96369.94;;;0.50;57.57
77288;BME280;66345;42.694;23.346;2023-12-04T07:52:54;96364.91;;;0.60;58.14
77288;BME280;66345;42.694;23.346;2023-12-04T07:55:20;96366.47;;;0.62;57.60
77288;BME280;66345;42.694;23.346;2023-12-04T07:57:45;96371.28;;;0.68;57.41
77288;BME280;66345;42.694;23.346;2023-12-04T08:00:11;96371.31;;;1.05;57.10
77288;BME280;66345;42.694;23.346;2023-12-04T08:02:37;96372.03;;;1.44;54.61
77288;BME280;66345;42.694;23.346;2023-12-04T08:05:03;96358.97;;;1.79;54.38
77288;BME280;66345;42.694;23.346;2023-12-04T08:07:28;96376.34;;;2.15;52.77
77288;BME280;66345;42.694;23.346;2023-12-04T08:09:54;96380.13;;;2.11;52.68
77288;BME280;66345;42.694;23.346;2023-12-04T08:12:19;96370.16;;;1.81;52.66
77288;BME280;66345;42.694;23.346;2023-12-04T08:14:45;96383.28;;;1.92;52.30
77288;BME280;66345;42.694;23.346;2023-12-04T08:17:11;96380.59;;;1.70;52.16
77288;BME280;66345;42.694;23.346;2023-12-04T08:19:37;96379.72;;;2.39;51.48
77288;BME280;66345;42.694;23.346;2023-12-04T08:22:04;96353.31;;;2.42;50.29
77288;BME280;66345;42.694;23.346;2023-12-04T08:24:29;96369.88;;;2.76;49.48
77288;BME280;66345;42.694;23.346;2023-12-04T08:26:56;96377.00;;;3.19;49.82
77288;BME280;66345;42.694;23.346;2023-12-04T08:29:22;96363.44;;;2.58;49.96
77288;BME280;66345;42.694;23.346;2023-12-04T08:31:47;96373.22;;;2.10;52.17
77288;BME280;66345;42.694;23.346;2023-12-04T08:34:13;96370.78;;;1.84;52.91
77288;BME280;66345;42.694;23.346;2023-12-04T08:36:38;96374.72;;;1.66;53.57
77288;BME280;66345;42.694;23.346;2023-12-04T08:39:04;96370.78;;;2.31;51.31
77288;BME280;66345;42.694;23.346;2023-12-04T08:41:29;96376.88;;;1.96;52.89
77288;BME280;66345;42.694;23.346;2023-12-04T08:43:55;96377.63;;;1.98;51.94
77288;BME280;66345;42.694;23.346;2023-12-04T08:46:21;96380.28;;;1.85;52.43
77288;BME280;66345;42.694;23.346;2023-12-04T08:48:46;96363.66;;;2.44;51.12
77288;BME280;66345;42.694;23.346;2023-12-04T08:51:16;96364.63;;;2.76;49.69
77288;BME280;66345;42.694;23.346;2023-12-04T08:53:42;96349.16;;;2.62;49.81
77288;BME280;66345;42.694;23.346;2023-12-04T08:56:08;96358.31;;;2.45;50.66
77288;BME280;66345;42.694;23.346;2023-12-04T08:58:33;96369.03;;;2.42;50.09
77288;BME280;66345;42.694;23.346;2023-12-04T09:00:59;96359.44;;;2.08;50.98
77288;BME280;66345;42.694;23.346;2023-12-04T09:03:24;96351.88;;;2.38;51.34
77288;BME280;66345;42.694;23.346;2023-12-04T09:05:50;96358.66;;;1.94;50.91
77288;BME280;66345;42.694;23.346;2023-12-04T09:08:17;96359.44;;;2.08;51.51
77288;BME280;66345;42.694;23.346;2023-12-04T09:10:44;96357.25;;;2.02;50.92
77288;BME280;66345;42.694;23.346;2023-12-04T09:13:11;96355.34;;;2.04;51.12
77288;BME280;66345;42.694;23.346;2023-12-04T09:15:36;96334.69;;;2.12;51.67
77288;BME280;66345;42.694;23.346;2023-12-04T09:18:02;96351.88;;;2.38;51.09
77288;BME280;66345;42.694;23.346;2023-12-04T09:20:30;96344.75;;;2.52;50.39
77288;BME280;66345;42.694;23.346;2023-12-04T09:22:56;96347.59;;;2.71;49.95
77288;BME280;66345;42.694;23.346;2023-12-04T09:25:21;96337.34;;;2.79;49.33
77288;BME280;66345;42.694;23.346;2023-12-04T09:27:47;96331.50;;;2.64;50.03
77288;BME280;66345;42.694;23.346;2023-12-04T09:30:12;96313.31;;;2.63;49.80
77288;BME280;66345;42.694;23.346;2023-12-04T09:32:39;96332.94;;;2.79;50.11
77288;BME280;66345;42.694;23.346;2023-12-04T09:35:05;96335.69;;;2.78;50.25
77288;BME280;66345;42.694;23.346;2023-12-04T09:37:30;96328.88;;;2.98;49.20
77288;BME280;66345;42.694;23.346;2023-12-04T09:39:56;96331.59;;;3.19;48.44
77288;BME280;66345;42.694;23.346;2023-12-04T09:42:21;96340.13;;;3.32;47.62
77288;BME280;66345;42.694;23.346;2023-12-04T09:44:48;96327.06;;;3.10;49.91
77288;BME280;66345;42.694;23.346;2023-12-04T09:47:18;96335.53;;;3.02;48.92
77288;BME280;66345;42.694;23.346;2023-12-04T09:49:44;96328.88;;;2.87;50.51
77288;BME280;66345;42.694;23.346;2023-12-04T09:52:11;96317.34;;;2.44;51.92
77288;BME280;66345;42.694;23.346;2023-12-04T09:54:37;96318.78;;;2.71;49.96
77288;BME280;66345;42.694;23.346;2023-12-04T09:57:04;96314.78;;;3.21;49.10
77288;BME280;66345;42.694;23.346;2023-12-04T09:59:30;96320.31;;;2.85;50.21
77288;BME280;66345;42.694;23.346;2023-12-04T10:01:57;96317.63;;;3.29;49.84
77288;BME280;66345;42.694;23.346;2023-12-04T10:04:22;96320.53;;;3.47;48.40
77288;BME280;66345;42.694;23.346;2023-12-04T10:06:52;96301.50;;;4.08;48.52
77288;BME280;66345;42.694;23.346;2023-12-04T10:09:20;96301.66;;;4.58;46.26
77288;BME280;66345;42.694;23.346;2023-12-04T10:11:48;96284.53;;;4.63;45.69
77288;BME280;66345;42.694;23.346;2023-12-04T10:14:19;96301.34;;;4.51;46.61
77288;BME280;66345;42.694;23.346;2023-12-04T10:16:46;96297.78;;;4.01;46.58
77288;BME280;66345;42.694;23.346;2023-12-04T10:19:38;96313.94;;;3.85;46.93
77288;BME280;66345;42.694;23.346;2023-12-04T10:22:07;96316.63;;;3.74;46.89
77288;BME280;66345;42.694;23.346;2023-12-04T10:24:37;96296.41;;;3.65;47.95
77288;BME280;66345;42.694;23.346;2023-12-04T10:27:05;96301.75;;;3.31;50.12
77288;BME280;66345;42.694;23.346;2023-12-04T10:29:46;96299.75;;;3.23;50.81
77288;BME280;66345;42.694;23.346;2023-12-04T10:32:21;96284.03;;;3.55;50.13
77288;BME280;66345;42.694;23.346;2023-12-04T10:34:49;96277.38;;;4.14;48.62
77288;BME280;66345;42.694;23.346;2023-12-04T10:37:15;96270.66;;;4.52;47.68
77288;BME280;66345;42.694;23.346;2023-12-04T10:39:48;96264.22;;;5.73;44.42
77288;BME280;66345;42.694;23.346;2023-12-04T10:42:27;96263.22;;;6.23;43.72
77288;BME280;66345;42.694;23.346;2023-12-04T10:44:57;96261.47;;;6.78;41.69
77288;BME280;66345;42.694;23.346;2023-12-04T10:47:23;96266.13;;;6.10;43.12
77288;BME280;66345;42.694;23.346;2023-12-04T10:49:49;96261.59;;;5.54;44.30
77288;BME280;66345;42.694;23.346;2023-12-04T10:52:17;96267.56;;;5.56;44.26
77288;BME280;66345;42.694;23.346;2023-12-04T10:54:45;96262.25;;;5.27;45.29
77288;BME280;66345;42.694;23.346;2023-12-04T10:57:15;96284.53;;;3.70;48.40
77288;BME280;66345;42.694;23.346;2023-12-04T10:59:42;96279.13;;;3.83;49.41
77288;BME280;66345;42.694;23.346;2023-12-04T11:02:12;96271.75;;;3.98;49.00
77288;BME280;66345;42.694;23.346;2023-12-04T11:04:42;96276.16;;;3.55;49.91
77288;BME280;66345;42.694;23.346;2023-12-04T11:07:09;96267.13;;;3.48;50.92
77288;BME280;66345;42.694;23.346;2023-12-04T11:09:35;96275.63;;;3.41;51.24
77288;BME280;66345;42.694;23.346;2023-12-04T11:12:06;96266.59;;;3.33;50.50
77288;BME280;66345;42.694;23.346;2023-12-04T11:14:44;96265.84;;;3.31;51.82
77288;BME280;66345;42.694;23.346;2023-12-04T11:17:14;96267.91;;;3.28;53.44
77288;BME280;66345;42.694;23.346;2023-12-04T11:19:50;96257.44;;;3.17;53.51
77288;BME280;66345;42.694;23.346;2023-12-04T11:22:17;96253.59;;;2.89;54.16
77288;BME280;66345;42.694;23.346;2023-12-04T11:24:47;96253.63;;;3.21;53.35
77288;BME280;66345;42.694;23.346;2023-12-04T11:27:16;96249.34;;;3.20;52.89
77288;BME280;66345;42.694;23.346;2023-12-04T11:29:42;96244.47;;;3.15;52.95
77288;BME280;66345;42.694;23.346;2023-12-04T11:32:13;96242.38;;;3.30;52.19
77288;BME280;66345;42.694;23.346;2023-12-04T11:34:47;96237.41;;;3.27;52.27
77288;BME280;66345;42.694;23.346;2023-12-04T11:37:13;96240.44;;;3.11;53.04
77288;BME280;66345;42.694;23.346;2023-12-04T11:39:39;96232.56;;;3.11;53.83
77288;BME280;66345;42.694;23.346;2023-12-04T11:42:09;96231.00;;;3.20;54.11
77288;BME280;66345;42.694;23.346;2023-12-04T11:44:34;96223.91;;;3.31;53.38
77288;BME280;66345;42.694;23.346;2023-12-04T11:47:05;96215.63;;;3.15;53.44
77288;BME280;66345;42.694;23.346;2023-12-04T11:49:31;96218.84;;;3.19;53.89
77288;BME280;66345;42.694;23.346;2023-12-04T11:52:03;96219.66;;;3.19;53.63
77288;BME280;66345;42.694;23.346;2023-12-04T11:55:07;96215.69;;;3.25;54.23
77288;BME280;66345;42.694;23.346;2023-12-04T11:57:39;96207.38;;;3.20;54.04
77288;BME280;66345;42.694;23.346;2023-12-04T12:02:40;96197.94;;;3.28;54.38
77288;BME280;66345;42.694;23.346;2023-12-04T12:05:06;96207.00;;;3.24;53.89
77288;BME280;66345;42.694;23.346;2023-12-04T12:07:33;96209.09;;;3.10;53.92
77288;BME280;66345;42.694;23.346;2023-12-04T12:09:59;96201.75;;;3.03;53.48
77288;BME280;66345;42.694;23.346;2023-12-04T12:12:26;96200.81;;;2.93;54.07
77288;BME280;66345;42.694;23.346;2023-12-04T12:14:52;96178.97;;;3.25;53.65
77288;BME280;66345;42.694;23.346;2023-12-04T12:17:17;96185.59;;;3.40;53.79
77288;BME280;66345;42.694;23.346;2023-12-04T12:19:43;96176.06;;;3.60;53.66
77288;BME280;66345;42.694;23.346;2023-12-04T12:22:09;96169.53;;;3.54;52.63
77288;BME280;66345;42.694;23.346;2023-12-04T12:24:35;96169.53;;;3.54;52.46
77288;BME280;66345;42.694;23.346;2023-12-04T12:27:01;96168.22;;;3.70;53.50
77288;BME280;66345;42.694;23.346;2023-12-04T12:29:27;96180.94;;;3.65;53.11
77288;BME280;66345;42.694;23.346;2023-12-04T12:31:52;96161.91;;;3.51;54.79
77288;BME280;66345;42.694;23.346;2023-12-04T12:34:18;96164.50;;;3.42;54.43
77288;BME280;66345;42.694;23.346;2023-12-04T12:36:44;96167.53;;;3.68;53.81
77288;BME280;66345;42.694;23.346;2023-12-04T12:39:09;96166.50;;;3.80;54.33
77288;BME280;66345;42.694;23.346;2023-12-04T12:41:35;96162.53;;;3.85;54.62
77288;BME280;66345;42.694;23.346;2023-12-04T12:44:01;96160.59;;;3.87;54.72
77288;BME280;66345;42.694;23.346;2023-12-04T12:46:27;96160.47;;;3.89;54.18
77288;BME280;66345;42.694;23.346;2023-12-04T12:48:52;96151.72;;;3.79;54.39
77288;BME280;66345;42.694;23.346;2023-12-04T12:51:18;96159.03;;;3.54;54.52
77288;BME280;66345;42.694;23.346;2023-12-04T12:53:44;96154.88;;;3.52;55.18